sensor_id;sensor_type;location;lat;lon;timestamp;P1;durP1;ratioP1;P2;durP2;ratioP2
48199;SDS011;33990;44.602;10.976;2022-07-23T00:00:26;13.38;;;8.45;;
48199;SDS011;33990;44.602;10.976;2022-07-23T00:02:54;11.85;;;8.43;;
48199;SDS011;33990;44.602;10.976;2022-07-23T00:05:21;8.80;;;7.90;;
48199;SDS011;33990;44.602;10.976;2022-07-23T00:07:50;10.02;;;8.73;;
48199;SDS011;33990;44.602;10.976;2022-07-23T00:10:17;11.93;;;8.70;;
48199;SDS011;33990;44.602;10.976;2022-07-23T00:12:44;9.13;;;7.90;;
48199;SDS011;33990;44.602;10.976;2022-07-23T00:15:18;10.65;;;8.02;;
48199;SDS011;33990;44.602;10.976;2022-07-23T00:17:45;8.77;;;7.82;;
48199;SDS011;33990;44.602;10.976;2022-07-23T00:20:13;9.68;;;8.18;;
48199;SDS011;33990;44.602;10.976;2022-07-23T00:22:59;10.63;;;8.20;;
48199;SDS011;33990;44.602;10.976;2022-07-23T00:25:26;9.48;;;8.63;;
48199;SDS011;33990;44.602;10.976;2022-07-23T00:27:56;9.50;;;8.30;;
48199;SDS011;33990;44.602;10.976;2022-07-23T00:30:25;9.00;;;8.15;;
48199;SDS011;33990;44.602;10.976;2022-07-23T00:32:55;9.43;;;8.20;;
48199;SDS011;33990;44.602;10.976;2022-07-23T00:35:25;7.93;;;7.18;;
48199;SDS011;33990;44.602;10.976;2022-07-23T00:37:54;9.50;;;8.60;;
48199;SDS011;33990;44.602;10.976;2022-07-23T00:40:22;10.52;;;7.60;;
48199;SDS011;33990;44.602;10.976;2022-07-23T00:42:50;8.95;;;8.00;;
48199;SDS011;33990;44.602;10.976;2022-07-23T00:45:18;8.95;;;8.15;;
48199;SDS011;33990;44.602;10.976;2022-07-23T00:47:46;8.40;;;7.47;;
48199;SDS011;33990;44.602;10.976;2022-07-23T00:50:14;9.00;;;8.10;;
48199;SDS011;33990;44.602;10.976;2022-07-23T00:52:41;10.77;;;8.20;;
48199;SDS011;33990;44.602;10.976;2022-07-23T00:55:09;8.93;;;7.97;;
48199;SDS011;33990;44.602;10.976;2022-07-23T00:57:39;9.20;;;7.85;;
48199;SDS011;33990;44.602;10.976;2022-07-23T01:00:09;9.45;;;7.68;;
48199;SDS011;33990;44.602;10.976;2022-07-23T01:02:39;8.60;;;7.80;;
48199;SDS011;33990;44.602;10.976;2022-07-23T01:05:09;8.70;;;7.90;;
48199;SDS011;33990;44.602;10.976;2022-07-23T01:07:37;8.57;;;7.75;;
48199;SDS011;33990;44.602;10.976;2022-07-23T01:10:05;9.00;;;8.10;;
48199;SDS011;33990;44.602;10.976;2022-07-23T01:12:54;8.13;;;7.32;;
48199;SDS011;33990;44.602;10.976;2022-07-23T01:15:22;8.55;;;7.75;;
48199;SDS011;33990;44.602;10.976;2022-07-23T01:17:50;9.25;;;8.30;;
48199;SDS011;33990;44.602;10.976;2022-07-23T01:20:18;8.85;;;8.05;;
48199;SDS011;33990;44.602;10.976;2022-07-23T01:22:46;8.57;;;7.70;;
48199;SDS011;33990;44.602;10.976;2022-07-23T01:25:13;9.18;;;8.27;;
48199;SDS011;33990;44.602;10.976;2022-07-23T01:27:50;9.20;;;7.75;;
48199;SDS011;33990;44.602;10.976;2022-07-23T01:30:20;8.77;;;7.88;;
48199;SDS011;33990;44.602;10.976;2022-07-23T01:32:51;8.15;;;7.15;;
48199;SDS011;33990;44.602;10.976;2022-07-23T01:35:18;8.68;;;7.85;;
48199;SDS011;33990;44.602;10.976;2022-07-23T01:37:46;8.88;;;7.93;;
48199;SDS011;33990;44.602;10.976;2022-07-23T01:40:15;8.98;;;8.00;;
48199;SDS011;33990;44.602;10.976;2022-07-23T01:42:43;8.75;;;7.85;;
48199;SDS011;33990;44.602;10.976;2022-07-23T01:45:12;9.02;;;7.90;;
48199;SDS011;33990;44.602;10.976;2022-07-23T01:47:44;8.50;;;7.70;;
48199;SDS011;33990;44.602;10.976;2022-07-23T01:50:11;8.70;;;7.80;;
48199;SDS011;33990;44.602;10.976;2022-07-23T01:52:41;9.02;;;8.13;;
48199;SDS011;33990;44.602;10.976;2022-07-23T01:55:08;8.43;;;7.63;;
48199;SDS011;33990;44.602;10.976;2022-07-23T01:57:45;10.18;;;8.48;;
48199;SDS011;33990;44.602;10.976;2022-07-23T02:00:15;9.43;;;8.52;;
48199;SDS011;33990;44.602;10.976;2022-07-23T02:02:47;8.73;;;7.93;;
48199;SDS011;33990;44.602;10.976;2022-07-23T02:05:14;8.88;;;7.93;;
48199;SDS011;33990;44.602;10.976;2022-07-23T02:07:41;8.65;;;7.95;;
48199;SDS011;33990;44.602;10.976;2022-07-23T02:10:09;9.35;;;8.05;;
48199;SDS011;33990;44.602;10.976;2022-07-23T02:12:37;9.48;;;8.32;;
48199;SDS011;33990;44.602;10.976;2022-07-23T02:15:05;9.27;;;8.43;;
48199;SDS011;33990;44.602;10.976;2022-07-23T02:17:36;8.80;;;7.95;;
48199;SDS011;33990;44.602;10.976;2022-07-23T02:20:05;8.90;;;8.05;;
48199;SDS011;33990;44.602;10.976;2022-07-23T02:22:33;8.85;;;8.02;;
48199;SDS011;33990;44.602;10.976;2022-07-23T02:25:01;9.15;;;8.25;;
48199;SDS011;33990;44.602;10.976;2022-07-23T02:27:30;10.05;;;9.07;;
48199;SDS011;33990;44.602;10.976;2022-07-23T02:29:58;8.90;;;8.00;;
48199;SDS011;33990;44.602;10.976;2022-07-23T02:32:25;8.98;;;8.10;;
48199;SDS011;33990;44.602;10.976;2022-07-23T02:34:53;9.18;;;8.27;;
48199;SDS011;33990;44.602;10.976;2022-07-23T02:37:21;8.80;;;7.95;;
48199;SDS011;33990;44.602;10.976;2022-07-23T02:39:48;10.35;;;8.10;;
48199;SDS011;33990;44.602;10.976;2022-07-23T02:42:16;9.15;;;8.25;;
48199;SDS011;33990;44.602;10.976;2022-07-23T02:44:44;9.27;;;8.38;;
48199;SDS011;33990;44.602;10.976;2022-07-23T02:47:12;10.05;;;9.05;;
48199;SDS011;33990;44.602;10.976;2022-07-23T02:49:39;9.02;;;8.23;;
48199;SDS011;33990;44.602;10.976;2022-07-23T02:52:08;9.57;;;8.63;;
48199;SDS011;33990;44.602;10.976;2022-07-23T02:54:37;9.43;;;8.48;;
48199;SDS011;33990;44.602;10.976;2022-07-23T02:57:04;9.48;;;8.57;;
48199;SDS011;33990;44.602;10.976;2022-07-23T02:59:32;9.57;;;8.68;;
48199;SDS011;33990;44.602;10.976;2022-07-23T03:02:00;9.82;;;8.90;;
48199;SDS011;33990;44.602;10.976;2022-07-23T03:04:28;9.13;;;8.30;;
48199;SDS011;33990;44.602;10.976;2022-07-23T03:06:55;10.30;;;9.25;;
48199;SDS011;33990;44.602;10.976;2022-07-23T03:09:24;9.90;;;9.00;;
48199;SDS011;33990;44.602;10.976;2022-07-23T03:11:52;10.02;;;9.02;;
48199;SDS011;33990;44.602;10.976;2022-07-23T03:14:19;10.68;;;9.68;;
48199;SDS011;33990;44.602;10.976;2022-07-23T03:16:47;10.70;;;9.43;;
48199;SDS011;33990;44.602;10.976;2022-07-23T03:19:16;10.98;;;8.95;;
48199;SDS011;33990;44.602;10.976;2022-07-23T03:21:44;10.90;;;9.90;;
48199;SDS011;33990;44.602;10.976;2022-07-23T03:24:12;11.05;;;9.02;;
48199;SDS011;33990;44.602;10.976;2022-07-23T03:26:39;10.77;;;9.77;;
48199;SDS011;33990;44.602;10.976;2022-07-23T03:29:07;10.55;;;9.55;;
48199;SDS011;33990;44.602;10.976;2022-07-23T03:31:35;10.50;;;9.05;;
48199;SDS011;33990;44.602;10.976;2022-07-23T03:34:02;9.95;;;9.13;;
48199;SDS011;33990;44.602;10.976;2022-07-23T03:36:30;10.70;;;9.63;;
48199;SDS011;33990;44.602;10.976;2022-07-23T03:38:58;10.77;;;9.77;;
48199;SDS011;33990;44.602;10.976;2022-07-23T03:41:28;10.70;;;9.60;;
48199;SDS011;33990;44.602;10.976;2022-07-23T03:43:56;10.68;;;9.57;;
48199;SDS011;33990;44.602;10.976;2022-07-23T03:46:25;11.38;;;10.38;;
48199;SDS011;33990;44.602;10.976;2022-07-23T03:48:54;10.43;;;9.43;;
48199;SDS011;33990;44.602;10.976;2022-07-23T03:51:25;10.73;;;9.60;;
48199;SDS011;33990;44.602;10.976;2022-07-23T03:53:52;10.98;;;9.82;;
48199;SDS011;33990;44.602;10.976;2022-07-23T03:56:21;11.85;;;10.70;;
48199;SDS011;33990;44.602;10.976;2022-07-23T03:58:49;10.50;;;9.50;;
48199;SDS011;33990;44.602;10.976;2022-07-23T04:01:16;10.48;;;9.48;;
48199;SDS011;33990;44.602;10.976;2022-07-23T04:03:43;10.63;;;9.68;;
48199;SDS011;33990;44.602;10.976;2022-07-23T04:06:11;11.73;;;10.55;;
48199;SDS011;33990;44.602;10.976;2022-07-23T04:08:39;10.80;;;9.80;;
48199;SDS011;33990;44.602;10.976;2022-07-23T04:11:06;11.52;;;9.43;;
48199;SDS011;33990;44.602;10.976;2022-07-23T04:13:34;10.32;;;9.35;;
48199;SDS011;33990;44.602;10.976;2022-07-23T04:16:03;10.07;;;9.02;;
48199;SDS011;33990;44.602;10.976;2022-07-23T04:18:31;11.00;;;9.90;;
48199;SDS011;33990;44.602;10.976;2022-07-23T04:21:08;11.60;;;9.65;;
48199;SDS011;33990;44.602;10.976;2022-07-23T04:23:37;10.02;;;9.02;;
48199;SDS011;33990;44.602;10.976;2022-07-23T04:26:05;11.05;;;10.15;;
48199;SDS011;33990;44.602;10.976;2022-07-23T04:28:33;10.52;;;9.52;;
48199;SDS011;33990;44.602;10.976;2022-07-23T04:31:01;11.57;;;10.50;;
48199;SDS011;33990;44.602;10.976;2022-07-23T04:33:30;10.52;;;9.48;;
48199;SDS011;33990;44.602;10.976;2022-07-23T04:36:00;9.57;;;8.68;;
48199;SDS011;33990;44.602;10.976;2022-07-23T04:38:28;10.18;;;9.27;;
48199;SDS011;33990;44.602;10.976;2022-07-23T04:41:00;9.60;;;8.37;;
48199;SDS011;33990;44.602;10.976;2022-07-23T04:43:27;10.90;;;9.80;;
48199;SDS011;33990;44.602;10.976;2022-07-23T04:45:55;10.23;;;9.30;;
48199;SDS011;33990;44.602;10.976;2022-07-23T04:48:22;10.68;;;8.95;;
48199;SDS011;33990;44.602;10.976;2022-07-23T04:50:58;12.50;;;10.25;;
48199;SDS011;33990;44.602;10.976;2022-07-23T04:53:28;9.52;;;8.68;;
48199;SDS011;33990;44.602;10.976;2022-07-23T04:55:59;11.05;;;10.05;;
48199;SDS011;33990;44.602;10.976;2022-07-23T04:58:29;10.48;;;9.38;;
48199;SDS011;33990;44.602;10.976;2022-07-23T05:00:56;12.13;;;9.50;;
48199;SDS011;33990;44.602;10.976;2022-07-23T05:03:25;10.30;;;9.30;;
48199;SDS011;33990;44.602;10.976;2022-07-23T05:05:53;10.82;;;8.80;;
48199;SDS011;33990;44.602;10.976;2022-07-23T05:08:20;10.35;;;9.27;;
48199;SDS011;33990;44.602;10.976;2022-07-23T05:10:54;10.82;;;9.73;;
48199;SDS011;33990;44.602;10.976;2022-07-23T05:13:21;10.85;;;9.70;;
48199;SDS011;33990;44.602;10.976;2022-07-23T05:15:51;10.50;;;9.43;;
48199;SDS011;33990;44.602;10.976;2022-07-23T05:18:19;9.93;;;8.93;;
48199;SDS011;33990;44.602;10.976;2022-07-23T05:20:47;13.60;;;9.63;;
48199;SDS011;33990;44.602;10.976;2022-07-23T05:23:18;9.85;;;8.98;;
48199;SDS011;33990;44.602;10.976;2022-07-23T05:25:47;9.55;;;8.70;;
48199;SDS011;33990;44.602;10.976;2022-07-23T05:28:15;9.43;;;8.55;;
48199;SDS011;33990;44.602;10.976;2022-07-23T05:30:48;11.30;;;9.48;;
48199;SDS011;33990;44.602;10.976;2022-07-23T05:33:20;11.85;;;9.30;;
48199;SDS011;33990;44.602;10.976;2022-07-23T05:35:47;9.45;;;8.55;;
48199;SDS011;33990;44.602;10.976;2022-07-23T05:38:25;10.13;;;7.90;;
48199;SDS011;33990;44.602;10.976;2022-07-23T05:40:56;9.63;;;8.45;;
48199;SDS011;33990;44.602;10.976;2022-07-23T05:43:23;10.35;;;9.38;;
48199;SDS011;33990;44.602;10.976;2022-07-23T05:45:52;9.35;;;8.25;;
48199;SDS011;33990;44.602;10.976;2022-07-23T05:48:21;9.98;;;9.02;;
48199;SDS011;33990;44.602;10.976;2022-07-23T05:51:00;9.80;;;8.80;;
48199;SDS011;33990;44.602;10.976;2022-07-23T05:53:30;9.32;;;8.32;;
48199;SDS011;33990;44.602;10.976;2022-07-23T05:56:19;11.65;;;9.25;;
48199;SDS011;33990;44.602;10.976;2022-07-23T05:58:47;9.70;;;8.68;;
48199;SDS011;33990;44.602;10.976;2022-07-23T06:01:16;13.10;;;8.60;;
48199;SDS011;33990;44.602;10.976;2022-07-23T06:04:00;9.90;;;8.07;;
48199;SDS011;33990;44.602;10.976;2022-07-23T06:06:33;8.95;;;8.10;;
48199;SDS011;33990;44.602;10.976;2022-07-23T06:09:02;9.05;;;8.15;;
48199;SDS011;33990;44.602;10.976;2022-07-23T06:11:30;10.70;;;8.65;;
48199;SDS011;33990;44.602;10.976;2022-07-23T06:13:58;9.50;;;8.57;;
48199;SDS011;33990;44.602;10.976;2022-07-23T06:16:37;8.85;;;7.95;;
48199;SDS011;33990;44.602;10.976;2022-07-23T06:19:04;10.80;;;8.82;;
48199;SDS011;33990;44.602;10.976;2022-07-23T06:21:32;9.38;;;8.48;;
48199;SDS011;33990;44.602;10.976;2022-07-23T06:24:13;10.88;;;8.40;;
48199;SDS011;33990;44.602;10.976;2022-07-23T06:26:40;8.98;;;7.65;;
48199;SDS011;33990;44.602;10.976;2022-07-23T06:29:08;9.32;;;8.45;;
48199;SDS011;33990;44.602;10.976;2022-07-23T06:31:35;9.98;;;8.65;;
48199;SDS011;33990;44.602;10.976;2022-07-23T06:34:03;9.43;;;7.93;;
48199;SDS011;33990;44.602;10.976;2022-07-23T06:36:35;10.60;;;7.95;;
48199;SDS011;33990;44.602;10.976;2022-07-23T06:39:02;9.45;;;8.43;;
48199;SDS011;33990;44.602;10.976;2022-07-23T06:41:31;8.93;;;7.95;;
48199;SDS011;33990;44.602;10.976;2022-07-23T06:43:59;11.05;;;9.02;;
48199;SDS011;33990;44.602;10.976;2022-07-23T06:46:29;9.38;;;7.85;;
48199;SDS011;33990;44.602;10.976;2022-07-23T06:48:57;8.88;;;7.55;;
48199;SDS011;33990;44.602;10.976;2022-07-23T06:51:28;8.50;;;7.70;;
48199;SDS011;33990;44.602;10.976;2022-07-23T06:53:55;8.85;;;7.47;;
48199;SDS011;33990;44.602;10.976;2022-07-23T06:56:22;7.70;;;7.00;;
48199;SDS011;33990;44.602;10.976;2022-07-23T06:58:50;10.32;;;7.75;;
48199;SDS011;33990;44.602;10.976;2022-07-23T07:01:18;9.43;;;7.68;;
48199;SDS011;33990;44.602;10.976;2022-07-23T07:03:46;7.47;;;6.75;;
48199;SDS011;33990;44.602;10.976;2022-07-23T07:06:13;10.00;;;7.78;;
48199;SDS011;33990;44.602;10.976;2022-07-23T07:08:41;9.98;;;7.75;;
48199;SDS011;33990;44.602;10.976;2022-07-23T07:11:10;8.07;;;7.28;;
48199;SDS011;33990;44.602;10.976;2022-07-23T07:13:37;9.18;;;7.72;;
48199;SDS011;33990;44.602;10.976;2022-07-23T07:16:05;11.05;;;7.68;;
48199;SDS011;33990;44.602;10.976;2022-07-23T07:18:32;8.77;;;7.90;;
48199;SDS011;33990;44.602;10.976;2022-07-23T07:21:00;8.90;;;7.53;;
48199;SDS011;33990;44.602;10.976;2022-07-23T07:23:36;9.98;;;8.18;;
48199;SDS011;33990;44.602;10.976;2022-07-23T07:26:03;9.88;;;8.13;;
48199;SDS011;33990;44.602;10.976;2022-07-23T07:28:31;8.68;;;7.88;;
48199;SDS011;33990;44.602;10.976;2022-07-23T07:30:58;8.77;;;7.97;;
48199;SDS011;33990;44.602;10.976;2022-07-23T07:33:26;7.55;;;6.85;;
48199;SDS011;33990;44.602;10.976;2022-07-23T07:35:53;9.60;;;8.15;;
48199;SDS011;33990;44.602;10.976;2022-07-23T07:38:20;10.57;;;8.35;;
48199;SDS011;33990;44.602;10.976;2022-07-23T07:40:48;9.38;;;7.70;;
48199;SDS011;33990;44.602;10.976;2022-07-23T07:43:15;8.88;;;7.88;;
48199;SDS011;33990;44.602;10.976;2022-07-23T07:45:43;8.50;;;7.70;;
48199;SDS011;33990;44.602;10.976;2022-07-23T07:48:10;9.13;;;8.23;;
48199;SDS011;33990;44.602;10.976;2022-07-23T07:50:37;8.90;;;8.10;;
48199;SDS011;33990;44.602;10.976;2022-07-23T07:53:05;9.13;;;7.80;;
48199;SDS011;33990;44.602;10.976;2022-07-23T07:55:32;9.02;;;8.18;;
48199;SDS011;33990;44.602;10.976;2022-07-23T07:58:00;9.00;;;7.75;;
48199;SDS011;33990;44.602;10.976;2022-07-23T08:00:47;9.65;;;8.02;;
48199;SDS011;33990;44.602;10.976;2022-07-23T08:03:16;9.60;;;8.60;;
48199;SDS011;33990;44.602;10.976;2022-07-23T08:05:44;10.00;;;8.15;;
48199;SDS011;33990;44.602;10.976;2022-07-23T08:08:12;9.27;;;8.48;;
48199;SDS011;33990;44.602;10.976;2022-07-23T08:10:41;11.02;;;8.35;;
48199;SDS011;33990;44.602;10.976;2022-07-23T08:13:13;12.50;;;9.27;;
48199;SDS011;33990;44.602;10.976;2022-07-23T08:15:42;10.60;;;9.32;;
48199;SDS011;33990;44.602;10.976;2022-07-23T08:18:12;15.90;;;9.07;;
48199;SDS011;33990;44.602;10.976;2022-07-23T08:20:40;9.30;;;8.40;;
48199;SDS011;33990;44.602;10.976;2022-07-23T08:23:07;10.32;;;9.27;;
48199;SDS011;33990;44.602;10.976;2022-07-23T08:25:42;10.45;;;9.23;;
48199;SDS011;33990;44.602;10.976;2022-07-23T08:28:09;9.60;;;8.40;;
48199;SDS011;33990;44.602;10.976;2022-07-23T08:30:42;10.23;;;8.65;;
48199;SDS011;33990;44.602;10.976;2022-07-23T08:33:11;9.43;;;8.55;;
48199;SDS011;33990;44.602;10.976;2022-07-23T08:36:00;9.18;;;8.20;;
48199;SDS011;33990;44.602;10.976;2022-07-23T08:38:30;10.52;;;9.02;;
48199;SDS011;33990;44.602;10.976;2022-07-23T08:40:58;9.75;;;8.80;;
48199;SDS011;33990;44.602;10.976;2022-07-23T08:43:26;10.82;;;8.43;;
48199;SDS011;33990;44.602;10.976;2022-07-23T08:45:57;10.23;;;9.23;;
48199;SDS011;33990;44.602;10.976;2022-07-23T08:48:28;8.70;;;7.85;;
48199;SDS011;33990;44.602;10.976;2022-07-23T08:50:59;10.07;;;7.25;;
48199;SDS011;33990;44.602;10.976;2022-07-23T08:53:28;9.57;;;8.52;;
48199;SDS011;33990;44.602;10.976;2022-07-23T08:55:57;8.25;;;7.45;;
48199;SDS011;33990;44.602;10.976;2022-07-23T08:58:26;8.52;;;7.60;;
48199;SDS011;33990;44.602;10.976;2022-07-23T09:00:54;8.05;;;7.22;;
48199;SDS011;33990;44.602;10.976;2022-07-23T09:03:25;8.15;;;7.28;;
48199;SDS011;33990;44.602;10.976;2022-07-23T09:05:57;9.07;;;8.02;;
48199;SDS011;33990;44.602;10.976;2022-07-23T09:08:33;9.82;;;7.90;;
48199;SDS011;33990;44.602;10.976;2022-07-23T09:11:06;8.55;;;7.18;;
48199;SDS011;33990;44.602;10.976;2022-07-23T09:13:38;10.23;;;8.15;;
48199;SDS011;33990;44.602;10.976;2022-07-23T09:16:32;9.10;;;7.55;;
48199;SDS011;33990;44.602;10.976;2022-07-23T09:19:03;8.18;;;7.05;;
48199;SDS011;33990;44.602;10.976;2022-07-23T09:21:36;8.27;;;7.07;;
48199;SDS011;33990;44.602;10.976;2022-07-23T09:24:06;8.77;;;7.88;;
48199;SDS011;33990;44.602;10.976;2022-07-23T09:26:36;12.02;;;7.38;;
48199;SDS011;33990;44.602;10.976;2022-07-23T09:37:12;8.57;;;7.53;;
48199;SDS011;33990;44.602;10.976;2022-07-23T09:39:42;9.68;;;7.97;;
48199;SDS011;33990;44.602;10.976;2022-07-23T09:44:45;9.70;;;7.53;;
48199;SDS011;33990;44.602;10.976;2022-07-23T09:47:23;9.52;;;8.00;;
48199;SDS011;33990;44.602;10.976;2022-07-23T09:52:28;12.10;;;9.00;;
48199;SDS011;33990;44.602;10.976;2022-07-23T09:55:03;10.52;;;7.68;;
48199;SDS011;33990;44.602;10.976;2022-07-23T09:57:32;10.13;;;7.93;;
48199;SDS011;33990;44.602;10.976;2022-07-23T10:00:01;8.70;;;7.63;;
48199;SDS011;33990;44.602;10.976;2022-07-23T10:02:31;10.02;;;8.13;;
48199;SDS011;33990;44.602;10.976;2022-07-23T10:05:26;9.15;;;8.18;;
48199;SDS011;33990;44.602;10.976;2022-07-23T10:07:58;8.77;;;7.78;;
48199;SDS011;33990;44.602;10.976;2022-07-23T10:10:58;10.95;;;8.23;;
48199;SDS011;33990;44.602;10.976;2022-07-23T10:13:30;8.88;;;7.97;;
48199;SDS011;33990;44.602;10.976;2022-07-23T10:16:18;10.88;;;8.75;;
48199;SDS011;33990;44.602;10.976;2022-07-23T10:18:53;9.35;;;8.30;;
48199;SDS011;33990;44.602;10.976;2022-07-23T10:21:24;9.13;;;8.23;;
48199;SDS011;33990;44.602;10.976;2022-07-23T10:27:20;9.80;;;7.65;;
48199;SDS011;33990;44.602;10.976;2022-07-23T10:30:10;9.73;;;8.80;;
48199;SDS011;33990;44.602;10.976;2022-07-23T10:32:53;10.73;;;8.43;;
48199;SDS011;33990;44.602;10.976;2022-07-23T10:38:12;9.55;;;8.27;;
48199;SDS011;33990;44.602;10.976;2022-07-23T10:41:01;9.60;;;7.95;;
48199;SDS011;33990;44.602;10.976;2022-07-23T10:43:30;9.07;;;8.20;;
48199;SDS011;33990;44.602;10.976;2022-07-23T10:49:30;9.38;;;8.45;;
48199;SDS011;33990;44.602;10.976;2022-07-23T10:54:55;8.35;;;7.55;;
48199;SDS011;33990;44.602;10.976;2022-07-23T10:57:25;9.25;;;8.32;;
48199;SDS011;33990;44.602;10.976;2022-07-23T11:02:36;8.32;;;7.63;;
48199;SDS011;33990;44.602;10.976;2022-07-23T11:05:05;9.15;;;8.25;;
48199;SDS011;33990;44.602;10.976;2022-07-23T11:07:35;8.57;;;7.55;;
48199;SDS011;33990;44.602;10.976;2022-07-23T11:10:03;10.02;;;7.57;;
48199;SDS011;33990;44.602;10.976;2022-07-23T11:12:31;8.63;;;7.13;;
48199;SDS011;33990;44.602;10.976;2022-07-23T11:27:49;9.20;;;8.20;;
48199;SDS011;33990;44.602;10.976;2022-07-23T11:33:15;8.40;;;7.05;;
48199;SDS011;33990;44.602;10.976;2022-07-23T11:35:46;8.63;;;7.82;;
48199;SDS011;33990;44.602;10.976;2022-07-23T11:38:17;9.07;;;7.55;;
48199;SDS011;33990;44.602;10.976;2022-07-23T11:40:49;8.60;;;6.95;;
48199;SDS011;33990;44.602;10.976;2022-07-23T11:43:18;9.55;;;7.80;;
48199;SDS011;33990;44.602;10.976;2022-07-23T11:45:47;8.35;;;7.28;;
48199;SDS011;33990;44.602;10.976;2022-07-23T11:48:18;9.25;;;6.50;;
48199;SDS011;33990;44.602;10.976;2022-07-23T11:50:48;9.13;;;7.43;;
48199;SDS011;33990;44.602;10.976;2022-07-23T11:53:22;9.30;;;7.07;;
48199;SDS011;33990;44.602;10.976;2022-07-23T11:55:51;10.60;;;8.07;;
48199;SDS011;33990;44.602;10.976;2022-07-23T11:58:19;8.20;;;7.35;;
48199;SDS011;33990;44.602;10.976;2022-07-23T12:00:47;9.20;;;8.18;;
48199;SDS011;33990;44.602;10.976;2022-07-23T12:03:15;12.00;;;7.55;;
48199;SDS011;33990;44.602;10.976;2022-07-23T12:05:42;7.95;;;7.15;;
48199;SDS011;33990;44.602;10.976;2022-07-23T12:08:10;9.40;;;7.10;;
48199;SDS011;33990;44.602;10.976;2022-07-23T12:10:39;9.52;;;6.78;;
48199;SDS011;33990;44.602;10.976;2022-07-23T12:13:11;7.68;;;6.97;;
48199;SDS011;33990;44.602;10.976;2022-07-23T12:15:44;7.35;;;6.63;;
48199;SDS011;33990;44.602;10.976;2022-07-23T12:18:16;9.48;;;6.60;;
48199;SDS011;33990;44.602;10.976;2022-07-23T12:20:49;9.27;;;6.97;;
48199;SDS011;33990;44.602;10.976;2022-07-23T12:25:48;8.02;;;6.78;;
48199;SDS011;33990;44.602;10.976;2022-07-23T12:33:27;8.20;;;6.90;;
48199;SDS011;33990;44.602;10.976;2022-07-23T12:36:00;9.55;;;7.20;;
48199;SDS011;33990;44.602;10.976;2022-07-23T12:41:49;9.13;;;7.30;;
48199;SDS011;33990;44.602;10.976;2022-07-23T12:44:18;8.13;;;6.95;;
48199;SDS011;33990;44.602;10.976;2022-07-23T12:46:49;10.52;;;7.28;;
48199;SDS011;33990;44.602;10.976;2022-07-23T12:49:26;12.02;;;6.88;;
48199;SDS011;33990;44.602;10.976;2022-07-23T12:51:56;7.28;;;6.57;;
48199;SDS011;33990;44.602;10.976;2022-07-23T12:54:27;8.43;;;7.25;;
48199;SDS011;33990;44.602;10.976;2022-07-23T12:56:55;9.30;;;7.00;;
48199;SDS011;33990;44.602;10.976;2022-07-23T12:59:30;7.72;;;6.30;;
48199;SDS011;33990;44.602;10.976;2022-07-23T13:01:58;9.40;;;7.35;;
48199;SDS011;33990;44.602;10.976;2022-07-23T13:04:26;6.95;;;6.13;;
48199;SDS011;33990;44.602;10.976;2022-07-23T13:06:58;10.30;;;6.88;;
48199;SDS011;33990;44.602;10.976;2022-07-23T13:09:32;7.43;;;6.75;;
48199;SDS011;33990;44.602;10.976;2022-07-23T13:12:07;7.35;;;6.57;;
48199;SDS011;33990;44.602;10.976;2022-07-23T13:14:37;7.68;;;6.22;;
48199;SDS011;33990;44.602;10.976;2022-07-23T13:17:05;8.77;;;6.70;;
48199;SDS011;33990;44.602;10.976;2022-07-23T13:19:33;7.43;;;6.55;;
48199;SDS011;33990;44.602;10.976;2022-07-23T13:22:01;7.72;;;6.65;;
48199;SDS011;33990;44.602;10.976;2022-07-23T13:24:36;7.40;;;6.70;;
48199;SDS011;33990;44.602;10.976;2022-07-23T13:27:06;7.07;;;6.35;;
48199;SDS011;33990;44.602;10.976;2022-07-23T13:29:39;8.70;;;6.80;;
48199;SDS011;33990;44.602;10.976;2022-07-23T13:32:06;8.07;;;7.30;;
48199;SDS011;33990;44.602;10.976;2022-07-23T13:34:39;7.80;;;7.00;;
48199;SDS011;33990;44.602;10.976;2022-07-23T13:37:08;9.15;;;7.25;;
48199;SDS011;33990;44.602;10.976;2022-07-23T13:39:35;7.18;;;6.38;;
48199;SDS011;33990;44.602;10.976;2022-07-23T13:42:05;9.32;;;6.45;;
48199;SDS011;33990;44.602;10.976;2022-07-23T13:44:34;7.50;;;6.80;;
48199;SDS011;33990;44.602;10.976;2022-07-23T13:47:03;7.38;;;6.68;;
48199;SDS011;33990;44.602;10.976;2022-07-23T13:49:31;7.15;;;6.45;;
48199;SDS011;33990;44.602;10.976;2022-07-23T13:52:02;7.18;;;6.45;;
48199;SDS011;33990;44.602;10.976;2022-07-23T13:54:36;7.05;;;6.35;;
48199;SDS011;33990;44.602;10.976;2022-07-23T13:57:03;7.60;;;6.90;;
48199;SDS011;33990;44.602;10.976;2022-07-23T13:59:31;6.88;;;6.20;;
48199;SDS011;33990;44.602;10.976;2022-07-23T14:01:59;7.00;;;6.20;;
48199;SDS011;33990;44.602;10.976;2022-07-23T14:04:48;7.13;;;6.43;;
48199;SDS011;33990;44.602;10.976;2022-07-23T14:07:17;7.45;;;6.35;;
48199;SDS011;33990;44.602;10.976;2022-07-23T14:09:46;7.10;;;6.40;;
48199;SDS011;33990;44.602;10.976;2022-07-23T14:12:13;7.57;;;6.40;;
48199;SDS011;33990;44.602;10.976;2022-07-23T14:14:43;7.40;;;6.70;;
48199;SDS011;33990;44.602;10.976;2022-07-23T14:17:11;7.32;;;6.68;;
48199;SDS011;33990;44.602;10.976;2022-07-23T14:19:39;6.78;;;6.15;;
48199;SDS011;33990;44.602;10.976;2022-07-23T14:22:06;9.07;;;7.30;;
48199;SDS011;33990;44.602;10.976;2022-07-23T14:24:33;7.65;;;6.95;;
48199;SDS011;33990;44.602;10.976;2022-07-23T14:27:02;7.65;;;6.20;;
48199;SDS011;33990;44.602;10.976;2022-07-23T14:29:31;7.88;;;7.07;;
48199;SDS011;33990;44.602;10.976;2022-07-23T14:32:01;9.40;;;7.28;;
48199;SDS011;33990;44.602;10.976;2022-07-23T14:34:29;6.75;;;6.15;;
48199;SDS011;33990;44.602;10.976;2022-07-23T14:36:57;9.38;;;6.93;;
48199;SDS011;33990;44.602;10.976;2022-07-23T14:39:27;7.35;;;6.50;;
48199;SDS011;33990;44.602;10.976;2022-07-23T14:41:54;6.82;;;6.18;;
48199;SDS011;33990;44.602;10.976;2022-07-23T14:44:22;6.70;;;6.10;;
48199;SDS011;33990;44.602;10.976;2022-07-23T14:46:49;7.38;;;6.53;;
48199;SDS011;33990;44.602;10.976;2022-07-23T14:49:17;7.57;;;6.88;;
48199;SDS011;33990;44.602;10.976;2022-07-23T14:51:45;9.07;;;7.03;;
48199;SDS011;33990;44.602;10.976;2022-07-23T14:54:13;7.00;;;6.30;;
48199;SDS011;33990;44.602;10.976;2022-07-23T14:56:41;7.85;;;7.03;;
48199;SDS011;33990;44.602;10.976;2022-07-23T14:59:09;7.93;;;7.10;;
48199;SDS011;33990;44.602;10.976;2022-07-23T15:01:36;7.85;;;6.63;;
48199;SDS011;33990;44.602;10.976;2022-07-23T15:04:05;8.82;;;6.65;;
48199;SDS011;33990;44.602;10.976;2022-07-23T15:06:53;7.40;;;6.70;;
48199;SDS011;33990;44.602;10.976;2022-07-23T15:09:20;8.10;;;7.07;;
48199;SDS011;33990;44.602;10.976;2022-07-23T15:11:48;7.78;;;6.97;;
48199;SDS011;33990;44.602;10.976;2022-07-23T15:14:16;7.75;;;6.90;;
48199;SDS011;33990;44.602;10.976;2022-07-23T15:16:55;7.82;;;6.97;;
48199;SDS011;33990;44.602;10.976;2022-07-23T15:19:22;8.50;;;6.28;;
48199;SDS011;33990;44.602;10.976;2022-07-23T15:21:50;7.82;;;6.97;;
48199;SDS011;33990;44.602;10.976;2022-07-23T15:24:17;7.68;;;6.97;;
48199;SDS011;33990;44.602;10.976;2022-07-23T15:26:44;7.80;;;6.25;;
48199;SDS011;33990;44.602;10.976;2022-07-23T15:29:18;7.65;;;6.50;;
48199;SDS011;33990;44.602;10.976;2022-07-23T15:31:47;7.82;;;6.40;;
48199;SDS011;33990;44.602;10.976;2022-07-23T15:34:24;8.05;;;6.15;;
48199;SDS011;33990;44.602;10.976;2022-07-23T15:36:52;7.78;;;6.68;;
48199;SDS011;33990;44.602;10.976;2022-07-23T15:39:20;7.25;;;6.55;;
48199;SDS011;33990;44.602;10.976;2022-07-23T15:41:47;9.15;;;6.45;;